Time;durP1;ratioP1;P1;durP2;ratioP2;P2;SDS_P1;SDS_P2;PMS_P1;PMS_P2;Temp;Humidity;BMP_temperature;BMP_pressure;BME280_temperature;BME280_humidity;BME280_pressure;Samples;Min_cycle;Max_cycle;Signal;HPM_P1;HPM_P2
2021/04/02 00:01:14;;;;;;;4.80;3.27;;;6.80;99.90;;;;;;4859020;29;20443;-81
2021/04/02 00:03:40;;;;;;;4.68;3.20;;;6.80;99.90;;;;;;4873316;29;20488;-80
2021/04/02 00:06:07;;;;;;;3.88;3.20;;;6.50;99.90;;;;;;4840696;29;20555;-80
2021/04/02 00:08:33;;;;;;;3.90;3.42;;;6.50;99.90;;;;;;4842922;29;20393;-80
2021/04/02 00:11:00;;;;;;;4.55;3.55;;;6.50;99.90;;;;;;4851210;29;20443;-80
2021/04/02 00:13:30;;;;;;;4.32;3.58;;;6.40;99.90;;;;;;4856591;29;20469;-81
2021/04/02 00:15:56;;;;;;;5.20;3.60;;;6.50;99.90;;;;;;4860943;29;20414;-82
2021/04/02 00:18:25;;;;;;;6.35;3.90;;;6.40;99.90;;;;;;4840620;29;20952;-80
2021/04/02 00:20:50;;;;;;;4.68;3.83;;;6.30;99.90;;;;;;4837273;29;20422;-81
2021/04/02 00:23:16;;;;;;;4.80;4.30;;;6.30;99.90;;;;;;4844709;29;20414;-81
2021/04/02 00:25:42;;;;;;;6.05;4.63;;;6.30;99.90;;;;;;4855088;29;20493;-82
2021/04/02 00:28:08;;;;;;;6.27;4.10;;;6.30;99.90;;;;;;4868242;29;20402;-81
2021/04/02 00:30:37;;;;;;;4.60;3.78;;;6.30;99.90;;;;;;4841740;29;20527;-81
2021/04/02 00:33:04;;;;;;;5.55;4.60;;;6.40;99.90;;;;;;4847503;29;20542;-82
2021/04/02 00:35:29;;;;;;;5.15;4.45;;;6.50;99.90;;;;;;4822389;29;20394;-81
2021/04/02 00:37:55;;;;;;;5.60;4.70;;;6.50;99.90;;;;;;4880940;29;20406;-86
2021/04/02 00:40:24;;;;;;;5.70;5.00;;;6.50;99.90;;;;;;4868289;29;20421;-80
2021/04/02 00:42:49;;;;;;;5.57;4.70;;;6.40;99.90;;;;;;4848012;29;20414;-80
2021/04/02 00:45:17;;;;;;;7.28;5.65;;;6.40;99.90;;;;;;4841764;29;20797;-79
2021/04/02 00:47:44;;;;;;;7.95;5.82;;;6.50;99.90;;;;;;4844717;29;20501;-80
2021/04/02 00:50:16;;;;;;;9.50;5.13;;;6.50;99.90;;;;;;4858814;29;20409;-80
2021/04/02 00:52:42;;;;;;;5.97;5.43;;;6.50;99.90;;;;;;4880860;29;20415;-80
2021/04/02 00:55:09;;;;;;;6.53;5.53;;;6.30;99.90;;;;;;4860951;29;20414;-80
2021/04/02 00:57:35;;;;;;;7.97;5.47;;;6.30;99.90;;;;;;4836460;29;20496;-80
2021/04/02 01:00:01;;;;;;;8.47;5.27;;;6.30;99.90;;;;;;4879577;29;20472;-79
2021/04/02 01:02:27;;;;;;;6.60;5.30;;;6.20;99.90;;;;;;4856839;29;20924;-78
2021/04/02 01:04:53;;;;;;;5.88;5.20;;;6.20;99.90;;;;;;4841404;29;20403;-79
2021/04/02 01:07:19;;;;;;;8.33;5.80;;;6.20;99.90;;;;;;4840083;29;20460;-79
2021/04/02 01:09:45;;;;;;;7.63;5.43;;;6.00;99.90;;;;;;4875714;29;20829;-79
2021/04/02 01:12:12;;;;;;;8.75;5.47;;;6.10;99.90;;;;;;4831396;29;20419;-79
2021/04/02 01:14:37;;;;;;;8.40;6.10;;;6.10;99.90;;;;;;4873407;29;20476;-80
2021/04/02 01:17:04;;;;;;;7.73;5.70;;;6.00;99.90;;;;;;4860508;29;20442;-79
2021/04/02 01:19:44;;;;;;;5.57;5.07;;;6.00;99.90;;;;;;4859890;29;20540;-79
2021/04/02 01:22:26;;;;;;;5.38;4.93;;;6.00;99.90;;;;;;4845557;29;20467;-80
2021/04/02 01:25:17;;;;;;;7.25;6.05;;;5.90;99.90;;;;;;4851055;29;20416;-81
2021/04/02 01:28:14;;;;;;;8.52;6.15;;;5.90;99.90;;;;;;4857499;29;20434;-80
2021/04/02 01:30:41;;;;;;;7.00;5.55;;;5.80;99.90;;;;;;4871851;29;20422;-80
2021/04/02 01:33:09;;;;;;;6.75;5.55;;;5.70;99.90;;;;;;4871645;29;20422;-78
2021/04/02 01:35:37;;;;;;;5.20;4.70;;;5.80;99.90;;;;;;4834290;29;20410;-77
2021/04/02 01:38:17;;;;;;;7.43;5.70;;;5.80;99.90;;;;;;4859434;29;20498;-78
2021/04/02 01:40:46;;;;;;;6.63;4.95;;;5.80;99.90;;;;;;4844369;29;20426;-77
2021/04/02 01:43:15;;;;;;;8.10;5.87;;;5.80;99.90;;;;;;4856187;29;21000;-78
2021/04/02 01:45:42;;;;;;;5.67;5.03;;;5.80;99.90;;;;;;4835280;29;20848;-79
2021/04/02 01:48:08;;;;;;;7.80;5.85;;;5.80;99.90;;;;;;4823416;29;20444;-79
2021/04/02 01:50:37;;;;;;;7.47;5.55;;;5.80;99.90;;;;;;4856117;29;20494;-80
2021/04/02 01:53:04;;;;;;;7.05;5.88;;;5.70;99.90;;;;;;4855398;29;20417;-78
2021/04/02 01:55:30;;;;;;;6.63;5.07;;;5.70;99.90;;;;;;4839617;29;20410;-78
2021/04/02 01:57:56;;;;;;;7.28;5.93;;;5.70;99.90;;;;;;4840200;29;20792;-77
2021/04/02 02:00:43;;;;;;;6.30;5.40;;;5.70;99.90;;;;;;4840287;29;20378;-77
2021/04/02 02:03:10;;;;;;;5.85;5.18;;;5.60;99.90;;;;;;4833391;29;20465;-78
2021/04/02 02:05:37;;;;;;;5.80;5.20;;;5.60;99.90;;;;;;4869162;29;20414;-80
2021/04/02 02:08:13;;;;;;;6.07;5.47;;;5.60;99.90;;;;;;4838396;29;20413;-78
2021/04/02 02:10:43;;;;;;;5.13;4.63;;;5.70;99.90;;;;;;4835598;29;21136;-79
2021/04/02 02:13:09;;;;;;;5.85;5.18;;;5.70;99.90;;;;;;4840486;29;20456;-82
2021/04/02 02:15:42;;;;;;;5.80;5.20;;;5.70;99.90;;;;;;4840866;29;20465;-79
2021/04/02 02:18:13;;;;;;;6.97;5.18;;;5.70;99.90;;;;;;4860751;29;20422;-79
2021/04/02 02:20:42;;;;;;;6.07;5.22;;;5.60;99.90;;;;;;4860301;29;20422;-82
2021/04/02 02:23:10;;;;;;;5.50;4.95;;;5.60;99.90;;;;;;4856517;29;20422;-80
2021/04/02 02:25:37;;;;;;;6.38;5.78;;;5.70;99.90;;;;;;4850723;29;20405;-81
2021/04/02 02:28:06;;;;;;;9.48;5.60;;;5.70;99.90;;;;;;4856733;29;20422;-81
2021/04/02 02:30:32;;;;;;;6.47;5.30;;;5.70;99.90;;;;;;4855271;29;20470;-82
2021/04/02 02:33:14;;;;;;;5.75;5.10;;;5.70;99.90;;;;;;4855848;29;20410;-79
2021/04/02 02:35:56;;;;;;;5.70;4.85;;;5.70;99.90;;;;;;4842822;29;20416;-80
2021/04/02 02:38:23;;;;;;;5.82;5.28;;;5.70;99.90;;;;;;4846075;29;20436;-80
2021/04/02 02:40:49;;;;;;;6.95;4.78;;;5.70;99.90;;;;;;4839103;29;20451;-81
2021/04/02 02:43:16;;;;;;;6.05;5.30;;;5.70;99.90;;;;;;4870922;29;20409;-80
2021/04/02 02:45:42;;;;;;;6.78;5.05;;;5.80;99.90;;;;;;4839008;29;20474;-80
2021/04/02 02:48:09;;;;;;;6.85;5.22;;;5.70;99.90;;;;;;4841334;29;20406;-81
2021/04/02 02:50:39;;;;;;;5.88;5.28;;;5.70;99.90;;;;;;4841348;29;20410;-81
2021/04/02 02:53:07;;;;;;;5.47;4.80;;;5.60;99.90;;;;;;4841887;29;20946;-85
2021/04/02 02:55:35;;;;;;;6.05;5.07;;;5.60;99.90;;;;;;4836453;29;20420;-81
2021/04/02 02:58:03;;;;;;;6.03;5.43;;;5.40;99.90;;;;;;4854100;29;20414;-81
2021/04/02 03:00:37;;;;;;;5.45;4.93;;;5.40;99.90;;;;;;4855554;29;20475;-81
2021/04/02 03:03:07;;;;;;;6.00;4.45;;;5.40;99.90;;;;;;4855993;29;20908;-81
2021/04/02 03:05:34;;;;;;;4.72;4.18;;;5.40;99.90;;;;;;4855127;29;20406;-80
2021/04/02 03:08:01;;;;;;;6.80;5.38;;;5.50;99.90;;;;;;4865135;29;20406;-82
2021/04/02 03:10:28;;;;;;;4.78;4.18;;;5.60;99.90;;;;;;4875229;29;20415;-82
2021/04/02 03:12:54;;;;;;;4.70;4.30;;;5.60;99.90;;;;;;4873752;29;20413;-82
2021/04/02 03:15:21;;;;;;;4.57;4.17;;;5.80;99.90;;;;;;4856293;29;20406;-81
2021/04/02 03:17:50;;;;;;;4.55;4.15;;;5.70;99.90;;;;;;4856091;29;20785;-82
2021/04/02 03:20:16;;;;;;;4.57;4.18;;;5.80;99.90;;;;;;4851380;29;20414;-82
2021/04/02 03:22:42;;;;;;;6.78;4.30;;;5.70;99.90;;;;;;4840476;29;20418;-82
2021/04/02 03:25:18;;;;;;;3.97;3.50;;;5.60;99.90;;;;;;4856287;29;20502;-82
2021/04/02 03:27:50;;;;;;;5.13;4.63;;;5.60;99.90;;;;;;4855968;29;20490;-82
2021/04/02 03:30:24;;;;;;;5.10;4.32;;;5.70;99.90;;;;;;4854523;29;20787;-82
2021/04/02 03:32:51;;;;;;;4.35;3.97;;;5.80;99.90;;;;;;4855708;29;20410;-82
2021/04/02 03:35:17;;;;;;;4.75;4.00;;;5.70;99.90;;;;;;4865006;29;20415;-82
2021/04/02 03:37:45;;;;;;;4.13;3.72;;;5.70;99.90;;;;;;4870976;29;20392;-83
2021/04/02 03:40:15;;;;;;;4.65;3.92;;;5.70;99.90;;;;;;4870320;29;20442;-83
2021/04/02 03:42:42;;;;;;;3.80;3.33;;;5.70;99.90;;;;;;4865717;29;20478;-81
2021/04/02 03:45:13;;;;;;;4.67;4.00;;;5.70;99.90;;;;;;4859905;29;20426;-85
2021/04/02 03:47:40;;;;;;;4.50;3.65;;;5.80;99.90;;;;;;4867694;29;20963;-81
2021/04/02 03:50:11;;;;;;;4.35;3.95;;;5.70;99.90;;;;;;4874261;29;20410;-85
2021/04/02 03:52:39;;;;;;;4.15;3.75;;;5.70;99.90;;;;;;4890903;29;20405;-86
2021/04/02 03:55:05;;;;;;;3.85;3.47;;;5.70;99.90;;;;;;4875211;29;20433;-90
2021/04/02 03:57:32;;;;;;;4.20;3.63;;;5.70;99.90;;;;;;4875387;29;20413;-83
2021/04/02 04:00:15;;;;;;;4.10;3.40;;;5.70;99.90;;;;;;4879440;29;20748;-85
2021/04/02 04:02:42;;;;;;;3.83;3.53;;;5.70;99.90;;;;;;4860245;29;20411;-86
2021/04/02 04:05:12;;;;;;;3.38;3.08;;;5.60;99.90;;;;;;4859411;29;20472;-85
2021/04/02 04:07:37;;;;;;;4.15;3.75;;;5.70;99.90;;;;;;4855211;29;20810;-83
2021/04/02 04:10:04;;;;;;;4.55;4.15;;;5.70;99.90;;;;;;4852712;29;20412;-82
2021/04/02 04:12:33;;;;;;;3.93;3.50;;;5.70;99.90;;;;;;4852005;29;20939;-82
2021/04/02 04:15:05;;;;;;;4.37;3.97;;;5.70;99.90;;;;;;4843073;29;20503;-82
2021/04/02 04:17:37;;;;;;;4.00;3.70;;;5.70;99.90;;;;;;4851084;29;20404;-81
2021/04/02 04:20:07;;;;;;;3.67;3.30;;;5.70;99.90;;;;;;4850472;29;20404;-82
2021/04/02 04:22:40;;;;;;;2.95;2.75;;;5.70;99.90;;;;;;4850546;29;20834;-81
2021/04/02 04:25:07;;;;;;;3.40;3.10;;;5.60;99.90;;;;;;4851772;29;20969;-81
2021/04/02 04:27:33;;;;;;;3.38;3.08;;;5.60;99.90;;;;;;4854155;29;20509;-81
2021/04/02 04:29:59;;;;;;;3.50;3.20;;;5.60;99.90;;;;;;4856009;29;20423;-81
2021/04/02 04:32:24;;;;;;;3.80;3.50;;;5.60;99.90;;;;;;4839203;29;20410;-80
2021/04/02 04:34:50;;;;;;;3.40;3.10;;;5.60;99.90;;;;;;4832348;29;20418;-82
2021/04/02 04:37:19;;;;;;;3.42;3.15;;;5.60;99.90;;;;;;4847760;29;20413;-80
2021/04/02 04:39:46;;;;;;;3.65;3.35;;;5.50;99.90;;;;;;4851870;29;20495;-81
2021/04/02 04:42:12;;;;;;;3.28;2.97;;;5.50;99.90;;;;;;4853461;29;20418;-84
2021/04/02 04:44:38;;;;;;;3.30;3.00;;;5.50;99.90;;;;;;4837253;29;20925;-81
2021/04/02 04:47:05;;;;;;;3.17;2.97;;;5.50;99.90;;;;;;4853791;29;20434;-80
2021/04/02 04:49:30;;;;;;;3.85;3.55;;;5.50;99.90;;;;;;4853065;29;20886;-81
2021/04/02 04:51:56;;;;;;;3.05;2.85;;;5.50;99.90;;;;;;4854477;29;20501;-80
2021/04/02 04:54:24;;;;;;;3.70;3.40;;;5.40;99.90;;;;;;4855881;29;20431;-82
2021/04/02 04:56:50;;;;;;;4.47;4.07;;;5.40;99.90;;;;;;4841320;29;20495;-83
2021/04/02 04:59:16;;;;;;;4.38;3.97;;;5.30;99.90;;;;;;4858066;29;20534;-81
2021/04/02 05:01:45;;;;;;;4.60;4.20;;;5.30;99.90;;;;;;4874155;29;20410;-83
2021/04/02 05:04:10;;;;;;;4.78;4.28;;;5.30;99.90;;;;;;4884218;29;20409;-91
2021/04/02 05:06:36;;;;;;;4.28;3.72;;;5.20;99.90;;;;;;4888762;29;20426;-83
2021/04/02 05:09:03;;;;;;;3.67;3.38;;;5.30;99.90;;;;;;4889753;29;20421;-84
2021/04/02 05:11:29;;;;;;;4.32;3.55;;;5.20;99.90;;;;;;4878698;29;20522;-89
2021/04/02 05:13:55;;;;;;;3.67;3.37;;;5.30;99.90;;;;;;4879714;29;20500;-81
2021/04/02 05:16:21;;;;;;;3.88;3.45;;;5.30;99.90;;;;;;4875307;29;20416;-85
2021/04/02 05:18:48;;;;;;;3.60;3.30;;;5.40;99.90;;;;;;4876887;29;20469;-83
2021/04/02 05:21:13;;;;;;;4.00;3.60;;;5.30;99.90;;;;;;4884710;29;20402;-84
2021/04/02 05:23:39;;;;;;;4.15;3.85;;;5.30;99.90;;;;;;4871801;29;20446;-83
2021/04/02 05:26:09;;;;;;;4.05;3.28;;;5.30;99.90;;;;;;4888597;29;20446;-85
2021/04/02 05:28:34;;;;;;;3.70;3.40;;;5.30;99.90;;;;;;4850601;29;20406;-86
2021/04/02 05:31:00;;;;;;;3.63;3.33;;;5.30;99.90;;;;;;4859120;29;20599;-83
2021/04/02 05:33:26;;;;;;;4.03;3.67;;;5.30;99.90;;;;;;4863114;29;20406;-83
2021/04/02 05:35:51;;;;;;;4.00;3.60;;;5.50;99.90;;;;;;4859928;29;20411;-82
2021/04/02 05:38:17;;;;;;;3.88;3.58;;;5.20;99.90;;;;;;4874569;29;20391;-82
2021/04/02 05:40:43;;;;;;;3.57;3.27;;;5.20;99.90;;;;;;4847105;29;20422;-83
2021/04/02 05:43:32;;;;;;;4.00;3.70;;;5.20;99.90;;;;;;4844868;29;20896;-84
2021/04/02 05:45:58;;;;;;;4.22;3.90;;;5.00;99.90;;;;;;4850880;29;20413;-83
2021/04/02 05:48:24;;;;;;;4.43;3.78;;;5.10;99.90;;;;;;4847958;29;20490;-83
2021/04/02 05:50:49;;;;;;;4.00;3.67;;;5.10;99.90;;;;;;4849535;29;20409;-82
2021/04/02 05:53:15;;;;;;;3.60;3.30;;;5.10;99.90;;;;;;4848391;29;20422;-87
2021/04/02 05:55:42;;;;;;;3.93;3.63;;;5.10;99.90;;;;;;4850747;29;20418;-84
2021/04/02 05:58:09;;;;;;;3.75;3.45;;;5.20;99.90;;;;;;4873131;29;20410;-83
2021/04/02 06:00:36;;;;;;;3.75;3.45;;;5.10;99.90;;;;;;4885222;29;20406;-84
2021/04/02 06:03:02;;;;;;;4.40;3.85;;;5.10;99.90;;;;;;4883237;29;20493;-85
2021/04/02 06:05:28;;;;;;;3.85;3.55;;;5.10;99.90;;;;;;4877837;29;20418;-90
2021/04/02 06:07:54;;;;;;;4.20;3.80;;;5.00;99.90;;;;;;4889460;29;20418;-83
2021/04/02 06:10:20;;;;;;;4.57;4.17;;;5.10;99.90;;;;;;4873111;29;20406;-84
2021/04/02 06:12:46;;;;;;;3.95;3.65;;;5.00;99.90;;;;;;4892184;29;20494;-87
2021/04/02 06:15:12;;;;;;;4.95;4.45;;;5.10;99.90;;;;;;4890538;29;20406;-88
2021/04/02 06:18:07;;;;;;;3.95;3.65;;;5.10;99.90;;;;;;4871919;29;20407;-82
2021/04/02 06:20:36;;;;;;;3.83;3.53;;;5.10;99.90;;;;;;4884514;29;20466;-82
2021/04/02 06:23:12;;;;;;;4.30;3.90;;;5.10;99.90;;;;;;4886278;29;20531;-87
2021/04/02 06:25:48;;;;;;;5.07;4.18;;;5.10;99.90;;;;;;4889739;29;20423;-90
2021/04/02 06:28:24;;;;;;;3.70;3.40;;;5.00;99.90;;;;;;4890518;29;20449;-84
2021/04/02 06:31:04;;;;;;;5.03;4.27;;;5.10;99.90;;;;;;4875323;29;20411;-91
2021/04/02 06:33:50;;;;;;;4.22;3.92;;;5.10;99.90;;;;;;4876188;29;20396;-92
2021/04/02 06:36:18;;;;;;;3.90;3.60;;;5.30;99.90;;;;;;4873215;29;20483;-83
2021/04/02 06:38:45;;;;;;;4.90;3.58;;;5.30;99.90;;;;;;4892167;29;20404;-92
2021/04/02 06:41:11;;;;;;;4.55;3.80;;;5.40;99.90;;;;;;4887892;29;20423;-85
2021/04/02 06:43:45;;;;;;;4.30;3.70;;;5.40;99.90;;;;;;4876324;29;20409;-84
2021/04/02 06:46:13;;;;;;;4.15;3.67;;;5.50;99.90;;;;;;4888887;29;20447;-89
2021/04/02 06:48:39;;;;;;;5.20;3.80;;;5.50;99.90;;;;;;4873815;29;20437;-87
2021/04/02 06:51:13;;;;;;;4.07;3.67;;;5.60;99.90;;;;;;4889595;23;20481;-81
2021/04/02 06:53:39;;;;;;;3.95;3.65;;;5.70;99.90;;;;;;4845307;29;20405;-81
2021/04/02 06:56:06;;;;;;;3.83;3.50;;;5.80;99.90;;;;;;4865313;29;20409;-80
2021/04/02 06:58:32;;;;;;;3.75;3.45;;;6.00;99.90;;;;;;4857583;29;21400;-81
2021/04/02 07:01:04;;;;;;;3.50;3.20;;;6.10;99.90;;;;;;4862178;29;20397;-80
2021/04/02 07:03:32;;;;;;;4.00;3.63;;;6.30;99.90;;;;;;4846856;29;20415;-81
2021/04/02 07:06:20;;;;;;;3.47;3.17;;;6.50;99.90;;;;;;5097411;23;20388;-81
2021/04/02 07:11:45;;;;;;;3.92;3.53;;;6.40;99.90;;;;;;5845105;23;20440;-79
2021/04/02 07:14:10;;;;;;;3.78;3.40;;;6.20;99.90;;;;;;4856856;29;21111;-79
2021/04/02 07:16:36;;;;;;;3.60;3.30;;;6.20;99.90;;;;;;4850303;29;20424;-80
2021/04/02 07:19:03;;;;;;;3.35;3.05;;;6.00;99.90;;;;;;4867595;29;20444;-79
2021/04/02 07:21:31;;;;;;;3.70;3.40;;;5.90;99.90;;;;;;4865491;29;20963;-79
2021/04/02 07:23:57;;;;;;;3.80;3.40;;;5.70;99.90;;;;;;4866512;29;20479;-79
2021/04/02 07:26:23;;;;;;;3.27;3.07;;;5.80;99.90;;;;;;4859108;29;20438;-80
2021/04/02 07:28:48;;;;;;;3.40;3.10;;;5.70;99.90;;;;;;4876783;29;20428;-80
2021/04/02 07:31:14;;;;;;;3.45;3.08;;;5.90;99.90;;;;;;4850871;29;20483;-79
2021/04/02 07:33:42;;;;;;;3.63;3.33;;;5.90;99.90;;;;;;4869066;29;20519;-80
2021/04/02 07:36:09;;;;;;;3.60;3.30;;;6.10;99.90;;;;;;4872797;29;20475;-79
2021/04/02 07:38:35;;;;;;;4.15;3.30;;;6.00;99.90;;;;;;4885903;29;20412;-79
2021/04/02 07:41:08;;;;;;;3.80;2.88;;;6.10;99.90;;;;;;4883638;29;20405;-79
2021/04/02 07:43:36;;;;;;;3.10;2.65;;;6.30;99.90;;;;;;4864354;29;20404;-80
2021/04/02 07:46:13;;;;;;;3.13;2.85;;;6.60;99.90;;;;;;4876582;29;20404;-79
2021/04/02 07:48:39;;;;;;;2.83;2.63;;;6.80;99.90;;;;;;4848575;29;20414;-79
2021/04/02 07:51:04;;;;;;;3.40;2.97;;;6.90;99.90;;;;;;4861524;29;20400;-80
2021/04/02 07:53:30;;;;;;;3.28;2.55;;;6.90;99.90;;;;;;4867332;29;20924;-80
2021/04/02 07:56:12;;;;;;;2.97;2.63;;;7.10;99.90;;;;;;4854994;29;20443;-78
2021/04/02 07:58:46;;;;;;;2.33;2.22;;;7.40;99.90;;;;;;4880998;29;20893;-79
2021/04/02 08:01:11;;;;;;;2.85;2.60;;;7.60;99.90;;;;;;4857850;29;20417;-80
2021/04/02 08:03:37;;;;;;;2.60;2.40;;;7.70;99.90;;;;;;4876362;29;20435;-78
2021/04/02 08:06:05;;;;;;;3.22;2.92;;;7.70;99.90;;;;;;4854431;29;20459;-79
2021/04/02 08:08:39;;;;;;;3.03;2.75;;;7.80;99.90;;;;;;4856840;29;20493;-79
2021/04/02 08:29:05;;;;;;;2.17;2.00;;;7.90;99.90;;;;;;4889479;23;20424;-79
2021/04/02 08:31:54;;;;;;;2.50;2.30;;;8.00;99.90;;;;;;4865844;29;20406;-79
2021/04/02 08:37:14;;;;;;;2.50;2.30;;;8.00;99.90;;;;;;5394145;23;20491;-78
2021/04/02 08:39:40;;;;;;;2.50;2.30;;;8.10;99.90;;;;;;4853857;29;20436;-79
2021/04/02 08:42:07;;;;;;;2.60;2.40;;;8.00;99.90;;;;;;4885273;29;20402;-79
2021/04/02 08:44:40;;;;;;;2.73;2.27;;;7.80;99.90;;;;;;4828326;29;20415;-82
2021/04/02 08:47:10;;;;;;;2.38;2.17;;;7.90;99.90;;;;;;4868124;29;20436;-79
2021/04/02 08:49:38;;;;;;;3.10;2.38;;;7.90;99.90;;;;;;4857110;29;20405;-81
2021/04/02 08:52:11;;;;;;;2.38;2.17;;;8.10;99.90;;;;;;4889335;29;20555;-78
2021/04/02 08:54:36;;;;;;;2.50;2.30;;;8.20;99.90;;;;;;4847871;29;20430;-78
2021/04/02 08:57:03;;;;;;;1.90;1.80;;;8.40;99.90;;;;;;4817896;29;20400;-77
2021/04/02 08:59:30;;;;;;;1.90;1.80;;;8.50;99.90;;;;;;4835330;29;20519;-79
2021/04/02 09:01:55;;;;;;;2.23;2.10;;;8.60;99.90;;;;;;4848381;29;20398;-78
2021/04/02 09:04:22;;;;;;;2.45;1.90;;;8.70;99.90;;;;;;4856750;29;20444;-78
2021/04/02 09:06:48;;;;;;;1.70;1.60;;;8.80;99.90;;;;;;4844479;29;20452;-82
2021/04/02 09:09:20;;;;;;;1.98;1.80;;;8.70;99.90;;;;;;4846707;29;20413;-87
2021/04/02 09:11:47;;;;;;;1.50;1.40;;;8.70;99.90;;;;;;4859999;29;20426;-81
2021/04/02 09:14:14;;;;;;;1.63;1.52;;;8.70;99.90;;;;;;4875806;29;20416;-88
2021/04/02 09:16:40;;;;;;;1.83;1.73;;;8.60;99.90;;;;;;4825380;29;20394;-77
2021/04/02 09:19:06;;;;;;;2.33;2.05;;;8.70;99.90;;;;;;4835856;29;20491;-78
2021/04/02 09:21:32;;;;;;;1.87;1.77;;;8.80;99.90;;;;;;4866423;29;20449;-78
2021/04/02 09:23:58;;;;;;;1.70;1.60;;;8.90;99.90;;;;;;4847784;29;20407;-78
2021/04/02 09:26:24;;;;;;;1.80;1.70;;;8.90;99.90;;;;;;4874903;29;20444;-77
2021/04/02 09:28:50;;;;;;;1.75;1.65;;;8.90;99.90;;;;;;4836389;29;20408;-77
2021/04/02 09:31:26;;;;;;;2.05;1.80;;;9.10;99.90;;;;;;4825343;29;21105;-78
2021/04/02 09:33:56;;;;;;;2.50;1.50;;;9.10;99.90;;;;;;4865977;29;20824;-77
2021/04/02 09:36:26;;;;;;;2.38;1.75;;;9.10;99.90;;;;;;4822968;29;20425;-77
2021/04/02 09:39:17;;;;;;;1.55;1.45;;;9.20;99.90;;;;;;4858222;29;20412;-77
2021/04/02 09:41:51;;;;;;;1.47;1.37;;;9.30;99.90;;;;;;4870028;29;20426;-76
2021/04/02 09:44:17;;;;;;;1.30;1.30;;;9.50;99.90;;;;;;4826136;29;20453;-76
2021/04/02 09:46:44;;;;;;;1.83;1.70;;;9.50;99.90;;;;;;4834412;29;20432;-77
2021/04/02 09:49:13;;;;;;;1.50;1.40;;;9.60;99.90;;;;;;4859751;29;20495;-77
2021/04/02 09:51:40;;;;;;;1.10;1.10;;;9.60;99.90;;;;;;4857965;29;20422;-78
2021/04/02 09:54:06;;;;;;;1.60;1.50;;;9.80;99.90;;;;;;4842584;29;20422;-77
2021/04/02 09:56:32;;;;;;;1.63;1.53;;;10.10;99.90;;;;;;4833647;29;20424;-77
2021/04/02 09:58:58;;;;;;;1.42;1.33;;;10.10;99.90;;;;;;4865331;29;20606;-78
2021/04/02 10:01:23;;;;;;;1.35;1.27;;;10.20;99.90;;;;;;4832544;29;20466;-77
2021/04/02 10:03:50;;;;;;;1.40;1.30;;;10.30;99.90;;;;;;4836245;29;20418;-76
2021/04/02 10:06:15;;;;;;;1.95;1.75;;;10.30;99.90;;;;;;4827110;29;20427;-76
2021/04/02 10:08:41;;;;;;;1.80;1.70;;;10.50;99.90;;;;;;4830969;29;20468;-77
2021/04/02 10:11:07;;;;;;;1.60;1.50;;;10.70;99.90;;;;;;4848745;29;20482;-77
2021/04/02 10:13:33;;;;;;;2.07;1.40;;;10.70;99.90;;;;;;4835494;29;20478;-77
2021/04/02 10:15:58;;;;;;;1.60;1.50;;;11.00;99.90;;;;;;4831947;29;20408;-77
2021/04/02 10:18:24;;;;;;;1.65;1.55;;;11.20;99.90;;;;;;4832470;29;20489;-77
2021/04/02 10:20:50;;;;;;;2.47;1.73;;;11.20;99.90;;;;;;4852525;29;20410;-76
2021/04/02 10:23:16;;;;;;;2.05;1.80;;;11.30;99.90;;;;;;4834695;29;20420;-77
2021/04/02 10:25:42;;;;;;;1.80;1.60;;;11.30;99.90;;;;;;4850030;29;20394;-76
2021/04/02 10:28:07;;;;;;;3.08;1.92;;;11.50;99.90;;;;;;4809367;29;20426;-77
2021/04/02 10:30:33;;;;;;;4.33;3.53;;;11.80;99.90;;;;;;4826127;29;20567;-77
2021/04/02 10:32:59;;;;;;;3.50;2.92;;;12.00;99.90;;;;;;4841195;29;20464;-77
2021/04/02 10:35:27;;;;;;;2.60;2.22;;;12.10;99.90;;;;;;4845037;29;20455;-76
2021/04/02 10:37:53;;;;;;;2.20;2.07;;;12.10;99.80;;;;;;4838638;29;20475;-76
2021/04/02 10:40:20;;;;;;;7.93;2.60;;;12.10;99.90;;;;;;4822193;29;20436;-77
2021/04/02 10:42:46;;;;;;;3.23;2.40;;;12.60;99.90;;;;;;4833871;29;20428;-77
2021/04/02 10:45:12;;;;;;;2.75;2.28;;;12.60;97.20;;;;;;4846093;29;20842;-78
2021/04/02 10:47:38;;;;;;;2.33;2.13;;;12.40;95.80;;;;;;4863004;29;20514;-77
2021/04/02 10:50:04;;;;;;;4.90;2.23;;;12.30;93.10;;;;;;4843934;29;20492;-77
2021/04/02 10:52:30;;;;;;;2.95;2.65;;;12.20;93.80;;;;;;4825472;29;20479;-77
2021/04/02 10:54:56;;;;;;;2.30;2.10;;;12.50;95.90;;;;;;4840185;29;20498;-77
2021/04/02 10:57:21;;;;;;;2.58;2.38;;;12.80;93.20;;;;;;4811768;29;20406;-78
2021/04/02 10:59:47;;;;;;;2.53;2.03;;;12.70;91.30;;;;;;4857287;29;20916;-78
2021/04/02 11:02:13;;;;;;;2.65;1.90;;;12.70;90.30;;;;;;4859884;29;20415;-78
2021/04/02 11:04:40;;;;;;;2.37;2.17;;;12.80;85.00;;;;;;4838518;29;20415;-78
2021/04/02 11:07:07;;;;;;;1.65;1.55;;;12.90;82.80;;;;;;4828812;29;20972;-78
2021/04/02 11:09:33;;;;;;;1.92;1.77;;;12.90;79.80;;;;;;4809823;29;20514;-78
2021/04/02 11:11:59;;;;;;;2.00;1.63;;;13.30;74.90;;;;;;4809527;29;20509;-80
2021/04/02 11:14:25;;;;;;;2.38;1.90;;;13.10;66.90;;;;;;4834684;29;20422;-78
2021/04/02 11:16:50;;;;;;;2.17;1.98;;;13.00;68.60;;;;;;4821662;29;21027;-77
2021/04/02 11:19:17;;;;;;;2.53;2.00;;;13.00;73.50;;;;;;4825719;29;20515;-79
2021/04/02 11:21:43;;;;;;;1.80;1.70;;;13.10;71.90;;;;;;4853499;29;20427;-77
2021/04/02 11:24:09;;;;;;;2.50;2.20;;;13.10;72.60;;;;;;4812076;29;20410;-77
2021/04/02 11:26:34;;;;;;;2.40;2.20;;;13.20;71.80;;;;;;4842768;29;20938;-78
2021/04/02 11:29:00;;;;;;;3.63;2.42;;;13.10;74.90;;;;;;4852204;29;20526;-78
2021/04/02 11:31:26;;;;;;;2.43;2.20;;;13.20;75.10;;;;;;4849078;29;20416;-78
2021/04/02 11:33:52;;;;;;;2.20;1.90;;;13.40;74.10;;;;;;4805813;29;20445;-79
2021/04/02 11:36:18;;;;;;;1.80;1.60;;;13.70;65.20;;;;;;4838869;29;21049;-89
2021/04/02 11:38:43;;;;;;;2.43;2.03;;;13.60;58.20;;;;;;4834662;29;20894;-78
2021/04/02 11:41:10;;;;;;;2.13;1.90;;;13.60;62.80;;;;;;4873679;29;20421;-79
2021/04/02 11:43:36;;;;;;;1.80;1.70;;;13.90;66.00;;;;;;4851868;29;20411;-88
2021/04/02 11:46:01;;;;;;;2.20;1.80;;;13.70;63.00;;;;;;4846935;29;20836;-78
2021/04/02 11:48:27;;;;;;;1.95;1.77;;;13.40;62.10;;;;;;4847578;29;20503;-89
2021/04/02 11:50:53;;;;;;;1.97;1.77;;;13.60;61.90;;;;;;4833003;29;20416;-81
2021/04/02 11:53:19;;;;;;;3.03;1.67;;;13.70;64.70;;;;;;4839136;29;20412;-78
2021/04/02 11:55:45;;;;;;;1.50;1.40;;;13.90;63.90;;;;;;4828799;29;20934;-77
2021/04/02 11:58:10;;;;;;;1.53;1.43;;;14.10;63.00;;;;;;4837669;29;20781;-78
2021/04/02 12:00:36;;;;;;;1.40;1.30;;;14.00;63.20;;;;;;4818771;29;20966;-77
2021/04/02 12:03:02;;;;;;;1.63;1.53;;;14.10;61.80;;;;;;4835237;29;20419;-77
2021/04/02 12:05:28;;;;;;;1.50;1.40;;;14.00;61.00;;;;;;4807452;29;20923;-78
2021/04/02 12:07:54;;;;;;;1.27;1.17;;;14.00;60.00;;;;;;4820457;29;20440;-78
2021/04/02 12:10:20;;;;;;;1.02;1.02;;;14.00;59.00;;;;;;4838674;29;20433;-77
2021/04/02 12:12:46;;;;;;;1.30;1.20;;;14.00;59.00;;;;;;4824363;29;20476;-77
2021/04/02 12:15:12;;;;;;;1.00;1.00;;;14.20;59.00;;;;;;4820184;29;20408;-79
2021/04/02 12:17:38;;;;;;;1.33;1.20;;;14.10;57.10;;;;;;4834137;29;20478;-77
2021/04/02 12:20:08;;;;;;;1.10;1.10;;;14.30;61.20;;;;;;4826359;29;20437;-78
2021/04/02 12:22:34;;;;;;;1.17;1.10;;;14.70;60.60;;;;;;4841696;29;20919;-78
2021/04/02 12:25:00;;;;;;;1.17;1.10;;;14.80;59.50;;;;;;4841592;29;20427;-77
2021/04/02 12:27:29;;;;;;;0.93;0.93;;;14.90;60.60;;;;;;4803605;29;20962;-79
2021/04/02 12:29:55;;;;;;;1.13;1.03;;;14.40;56.70;;;;;;4834631;29;20432;-82
2021/04/02 12:32:24;;;;;;;1.10;1.10;;;14.50;58.90;;;;;;4833576;29;20431;-79
2021/04/02 12:34:50;;;;;;;0.90;0.90;;;14.70;61.10;;;;;;4850851;29;20540;-78
2021/04/02 12:37:17;;;;;;;0.90;0.90;;;15.40;61.10;;;;;;4814560;29;20513;-77
2021/04/02 12:39:42;;;;;;;0.95;0.95;;;16.00;58.80;;;;;;4829056;29;20482;-78
2021/04/02 12:42:08;;;;;;;0.90;0.90;;;16.00;57.60;;;;;;4831656;29;20422;-79
2021/04/02 12:44:34;;;;;;;0.87;0.87;;;15.50;58.40;;;;;;4810112;29;20436;-77
2021/04/02 12:47:00;;;;;;;1.13;1.02;;;15.20;58.20;;;;;;4835079;29;20850;-78
2021/04/02 12:49:26;;;;;;;1.70;1.23;;;15.20;60.00;;;;;;4836851;29;20780;-78
2021/04/02 12:51:51;;;;;;;1.00;1.00;;;15.10;59.60;;;;;;4845976;29;20428;-78
2021/04/02 12:54:18;;;;;;;0.90;0.90;;;14.90;59.80;;;;;;4841391;29;20404;-78
2021/04/02 12:56:43;;;;;;;0.85;0.85;;;14.90;59.10;;;;;;4848776;29;20917;-76
2021/04/02 12:59:09;;;;;;;0.80;0.80;;;15.10;58.30;;;;;;4826519;29;20420;-76
2021/04/02 13:01:35;;;;;;;0.93;0.93;;;15.00;59.60;;;;;;4825962;29;20438;-77
2021/04/02 13:04:01;;;;;;;2.13;1.10;;;15.10;59.70;;;;;;4854029;29;20412;-77
2021/04/02 13:06:26;;;;;;;1.37;1.07;;;15.30;59.80;;;;;;4854177;29;20481;-76
2021/04/02 13:08:52;;;;;;;1.08;1.08;;;15.30;59.60;;;;;;4844347;29;20470;-77
2021/04/02 13:11:18;;;;;;;0.90;0.90;;;15.40;59.10;;;;;;4859314;29;20943;-76
2021/04/02 13:13:45;;;;;;;1.07;0.97;;;15.60;57.90;;;;;;4855713;29;20430;-77
2021/04/02 13:16:10;;;;;;;1.30;1.20;;;15.80;58.80;;;;;;4826997;29;20431;-76
2021/04/02 13:18:36;;;;;;;0.80;0.80;;;15.60;58.40;;;;;;4842197;29;20410;-76
2021/04/02 13:21:02;;;;;;;0.80;0.80;;;15.60;58.20;;;;;;4830679;29;20444;-76
2021/04/02 13:23:28;;;;;;;0.90;0.90;;;16.20;61.80;;;;;;4844928;29;20403;-76